createdAt,value
2019-04-21T00:00:56.871Z,101656.39
2019-04-21T00:03:27.485Z,101657.16
2019-04-21T00:06:15.762Z,101656.95
2019-04-21T00:08:50.829Z,101656.22
2019-04-21T00:11:20.692Z,101652.16
2019-04-21T00:13:42.690Z,101606.84
2019-04-21T00:16:03.385Z,101648.00
2019-04-21T00:18:41.808Z,101643.59
2019-04-21T00:21:11.031Z,101642.73
2019-04-21T00:23:54.071Z,101637.54
2019-04-21T00:26:23.823Z,101642.38
2019-04-21T00:29:04.027Z,101639.64
2019-04-21T00:31:27.094Z,101639.55
2019-04-21T00:33:41.600Z,101634.53
2019-04-21T00:36:16.705Z,101636.02
2019-04-21T00:39:18.655Z,101632.97
2019-04-21T00:41:29.665Z,101628.44
2019-04-21T00:43:57.045Z,101629.77
2019-04-21T00:46:30.763Z,101625.25
2019-04-21T00:49:03.102Z,101621.10
2019-04-21T00:51:49.718Z,101618.37
2019-04-21T00:54:21.144Z,101624.61
2019-04-21T00:56:54.202Z,101624.04
2019-04-21T00:59:20.116Z,101618.95
2019-04-21T01:01:49.120Z,101619.97
2019-04-21T01:04:21.408Z,101620.55
2019-04-21T01:06:53.098Z,101616.97
2019-04-21T01:09:20.183Z,101616.19
2019-04-21T01:11:59.612Z,101613.64
2019-04-21T01:14:30.092Z,101610.20
2019-04-21T01:16:57.397Z,101611.84
2019-04-21T01:19:26.937Z,101611.50
2019-04-21T01:21:36.951Z,101604.91
2019-04-21T01:24:18.593Z,101606.75
2019-04-21T01:26:52.487Z,101607.30
2019-04-21T01:29:34.329Z,101599.17
2019-04-21T01:32:05.151Z,101597.46
2019-04-21T01:34:33.214Z,101601.22
2019-04-21T01:36:58.886Z,101591.44
2019-04-21T01:39:42.048Z,101588.49
2019-04-21T01:42:11.267Z,101594.09
2019-04-21T01:44:43.126Z,101593.75
2019-04-21T01:47:06.087Z,101591.32
2019-04-21T01:49:29.665Z,101593.20
2019-04-21T01:52:24.738Z,101594.36
2019-04-21T01:55:06.417Z,101593.17
2019-04-21T01:57:45.188Z,101590.81
2019-04-21T02:00:13.270Z,101590.66
2019-04-21T02:02:59.493Z,101596.48
2019-04-21T02:05:34.391Z,101591.43
2019-04-21T02:07:55.083Z,101599.03
2019-04-21T02:10:35.334Z,101590.25
2019-04-21T02:12:58.252Z,101589.05
2019-04-21T02:15:37.888Z,101583.61
2019-04-21T02:17:59.701Z,101583.36
2019-04-21T02:20:25.821Z,101587.72
2019-04-21T02:25:38.441Z,101575.63
2019-04-21T02:28:13.516Z,101576.95
2019-04-21T02:31:02.955Z,101580.95
2019-04-21T02:36:04.799Z,101577.20
2019-04-21T02:38:34.430Z,101577.06
2019-04-21T02:40:55.390Z,101567.53
2019-04-21T02:43:25.530Z,101568.00
2019-04-21T02:50:57.638Z,101563.00
2019-04-21T02:58:44.119Z,101563.85
2019-04-21T03:01:31.903Z,101569.77
2019-04-21T03:04:00.612Z,101569.11
2019-04-21T03:07:01.635Z,101559.98
2019-04-21T03:09:33.516Z,101551.70
2019-04-21T03:12:07.056Z,101556.43
2019-04-21T03:14:35.835Z,101548.30
2019-04-21T03:16:55.635Z,101554.67
2019-04-21T03:19:48.204Z,101548.77
2019-04-21T03:22:12.911Z,101544.11
2019-04-21T03:25:04.258Z,101546.62
2019-04-21T03:27:32.798Z,101539.91
2019-04-21T03:32:31.015Z,101537.05
2019-04-21T03:37:19.116Z,101534.91
2019-04-21T03:39:46.927Z,101535.52
2019-04-21T03:42:25.607Z,101530.72
2019-04-21T03:44:45.735Z,101528.98
2019-04-21T03:47:23.007Z,101521.91
2019-04-21T03:52:27.825Z,101530.52
2019-04-21T04:11:31.674Z,101512.15
2019-04-21T04:19:09.311Z,101505.75
2019-04-21T04:24:13.686Z,101505.09
2019-04-21T04:26:33.117Z,101508.04
2019-04-21T04:29:03.448Z,101511.56
2019-04-21T04:31:37.626Z,101511.35
2019-04-21T04:34:04.975Z,101510.43
2019-04-21T04:36:47.434Z,101511.48
2019-04-21T04:39:34.006Z,101513.19
2019-04-21T04:47:15.830Z,101519.19
2019-04-21T04:49:46.127Z,101512.28
2019-04-21T04:52:26.292Z,101513.58
2019-04-21T04:54:47.599Z,101517.92
2019-04-21T04:57:18.267Z,101511.84
2019-04-21T04:59:43.003Z,101512.35
2019-04-21T05:07:13.845Z,101505.82
2019-04-21T05:09:46.577Z,101505.22
2019-04-21T05:12:11.585Z,101505.73
2019-04-21T05:14:46.105Z,101502.23
2019-04-21T05:17:30.634Z,101512.38
2019-04-21T05:20:05.846Z,101509.00
2019-04-21T05:22:22.956Z,101507.23
2019-04-21T05:24:40.580Z,101501.05
2019-04-21T05:27:08.744Z,101502.62
2019-04-21T05:29:55.626Z,101496.38
2019-04-21T05:32:40.266Z,101498.44
2019-04-21T05:35:01.637Z,101496.38
2019-04-21T05:37:28.622Z,101498.94
2019-04-21T05:40:04.393Z,101494.20
2019-04-21T05:42:30.292Z,101493.51
2019-04-21T05:47:49.523Z,101489.59
2019-04-21T05:50:12.333Z,101492.13
2019-04-21T05:52:47.430Z,101497.95
2019-04-21T05:55:34.107Z,101489.66
2019-04-21T05:57:57.267Z,101489.93
2019-04-21T06:00:55.958Z,101495.83
2019-04-21T06:03:05.378Z,101491.62
2019-04-21T06:05:42.515Z,101492.59
2019-04-21T06:08:09.877Z,101492.34
2019-04-21T06:10:41.960Z,101487.95
2019-04-21T06:13:12.897Z,101496.07
2019-04-21T06:15:52.596Z,101483.38
2019-04-21T06:18:21.721Z,101482.09
2019-04-21T06:20:46.677Z,101485.14
2019-04-21T06:23:21.302Z,101482.69
2019-04-21T06:28:22.684Z,101485.02
2019-04-21T06:31:00.481Z,101478.31
2019-04-21T06:33:19.870Z,101472.06
2019-04-21T06:36:24.084Z,101470.06
2019-04-21T06:39:00.029Z,101465.33
2019-04-21T06:41:27.728Z,101465.08
2019-04-21T06:43:56.646Z,101458.34
2019-04-21T06:46:30.849Z,101460.83
2019-04-21T06:51:27.445Z,101450.59
2019-04-21T06:56:36.541Z,101450.66
2019-04-21T06:59:00.833Z,101450.09
2019-04-21T07:01:36.000Z,101444.23
2019-04-21T07:04:11.506Z,101448.55
2019-04-21T07:06:46.981Z,101447.06
2019-04-21T07:09:16.026Z,101451.84
2019-04-21T07:11:41.240Z,101454.33
2019-04-21T07:14:27.254Z,101451.02
2019-04-21T07:16:46.345Z,101447.56
2019-04-21T07:21:46.857Z,101443.51
2019-04-21T07:24:20.177Z,101441.73
2019-04-21T07:26:50.806Z,101445.33
2019-04-21T07:29:25.887Z,101438.36
2019-04-21T07:31:55.632Z,101434.39
2019-04-21T07:34:21.374Z,101432.33
2019-04-21T07:39:18.033Z,101435.55
2019-04-21T07:41:45.088Z,101435.86
2019-04-21T07:44:13.656Z,101434.36
2019-04-21T07:46:47.227Z,101430.27
2019-04-21T07:49:46.253Z,101419.79
2019-04-21T07:52:24.812Z,101419.81
2019-04-21T07:55:05.559Z,101409.59
2019-04-21T07:57:18.806Z,101407.84
2019-04-21T08:00:08.395Z,101402.47
2019-04-21T08:02:30.803Z,101402.34
2019-04-21T08:05:10.256Z,101392.11
2019-04-21T08:07:46.226Z,101393.03
2019-04-21T08:09:57.199Z,101391.37
2019-04-21T08:12:24.226Z,101389.92
2019-04-21T08:15:07.709Z,101387.46
2019-04-21T08:17:36.614Z,101386.92
2019-04-21T08:20:09.292Z,101388.03
2019-04-21T08:22:44.204Z,101388.66
2019-04-21T08:25:09.209Z,101389.08
2019-04-21T08:28:02.255Z,101375.84
2019-04-21T08:30:10.993Z,101377.36
2019-04-21T08:32:51.467Z,101376.24
2019-04-21T08:35:48.770Z,101369.50
2019-04-21T08:37:43.271Z,101369.20
2019-04-21T08:40:28.936Z,101363.17
2019-04-21T08:42:54.086Z,101354.79
2019-04-21T08:45:22.042Z,101370.06
2019-04-21T08:47:51.951Z,101368.16
2019-04-21T08:50:21.104Z,101362.28
2019-04-21T08:52:58.327Z,101353.76
2019-04-21T08:55:40.038Z,101352.64
2019-04-21T08:58:22.651Z,101341.41
2019-04-21T09:00:56.258Z,101340.97
2019-04-21T09:03:37.401Z,101342.84
2019-04-21T09:06:07.609Z,101348.80
2019-04-21T09:08:33.108Z,101333.03
2019-04-21T09:11:05.725Z,101334.14
2019-04-21T09:13:36.955Z,101329.85
2019-04-21T09:16:03.796Z,101334.50
2019-04-21T09:18:32.511Z,101326.55
2019-04-21T09:21:13.534Z,101322.52
2019-04-21T09:23:43.690Z,101320.11
2019-04-21T09:26:13.836Z,101324.52
2019-04-21T09:28:42.369Z,101322.66
2019-04-21T09:31:00.870Z,101310.88
2019-04-21T09:33:35.780Z,101308.91
2019-04-21T09:36:02.613Z,101303.47
2019-04-21T09:38:38.007Z,101297.44
2019-04-21T09:41:02.660Z,101298.67
2019-04-21T09:43:40.039Z,101302.20
2019-04-21T09:46:03.977Z,101294.73
2019-04-21T09:48:49.111Z,101294.09
2019-04-21T09:51:06.464Z,101290.46
2019-04-21T09:53:38.775Z,101284.95
2019-04-21T09:56:11.794Z,101279.22
2019-04-21T09:58:43.720Z,101277.37
2019-04-21T10:01:19.767Z,101270.58
2019-04-21T10:03:46.650Z,101261.10
2019-04-21T10:06:14.406Z,101258.08
2019-04-21T10:08:42.905Z,101261.04
2019-04-21T10:11:12.356Z,101257.94
2019-04-21T10:13:41.993Z,101241.28
2019-04-21T10:16:13.315Z,101241.72
2019-04-21T10:18:43.850Z,101231.27
2019-04-21T10:21:13.656Z,101232.98
2019-04-21T10:23:43.828Z,101225.27
2019-04-21T10:26:14.547Z,101228.92
2019-04-21T10:28:44.036Z,101226.75
2019-04-21T10:31:14.418Z,101216.86
2019-04-21T10:33:44.301Z,101214.95
2019-04-21T10:36:15.108Z,101218.55
2019-04-21T10:38:51.297Z,101218.03
2019-04-21T10:41:17.004Z,101209.95
2019-04-21T10:43:47.166Z,101212.48
2019-04-21T10:46:17.042Z,101209.44
2019-04-21T10:48:46.791Z,101204.78
2019-04-21T10:51:17.162Z,101195.52
2019-04-21T10:53:53.882Z,101185.05
2019-04-21T10:56:30.715Z,101187.70
2019-04-21T10:58:54.184Z,101175.68
2019-04-21T11:01:25.477Z,101169.43
2019-04-21T11:03:58.919Z,101165.92
2019-04-21T11:06:28.854Z,101175.09
2019-04-21T11:09:01.041Z,101167.62
2019-04-21T11:11:30.172Z,101161.48
2019-04-21T11:14:00.085Z,101149.63
2019-04-21T11:16:30.845Z,101154.48
2019-04-21T11:19:00.489Z,101148.20
2019-04-21T11:21:31.024Z,101137.47
2019-04-21T11:24:01.913Z,101140.73
2019-04-21T11:26:31.987Z,101135.11
2019-04-21T11:29:01.221Z,101132.48
2019-04-21T11:31:31.284Z,101128.16
2019-04-21T11:34:01.032Z,101121.16
2019-04-21T11:36:31.359Z,101111.61
2019-04-21T11:39:19.367Z,101110.05
2019-04-21T11:41:36.970Z,101110.25
2019-04-21T11:44:07.781Z,101114.74
2019-04-21T11:46:38.341Z,101104.91
2019-04-21T11:49:08.448Z,101109.12
2019-04-21T11:51:38.204Z,101105.71
2019-04-21T11:54:08.767Z,101111.14
2019-04-21T11:56:38.894Z,101100.20
2019-04-21T11:59:10.037Z,101096.89
2019-04-21T12:01:39.650Z,101089.88
2019-04-21T12:04:09.773Z,101088.34
2019-04-21T12:06:44.449Z,101088.88
2019-04-21T12:09:11.835Z,101079.11
2019-04-21T12:11:43.188Z,101080.23
2019-04-21T12:14:12.643Z,101080.67
2019-04-21T12:16:43.302Z,101078.06
2019-04-21T12:19:12.919Z,101077.09
2019-04-21T12:21:53.269Z,101062.33
2019-04-21T12:24:15.202Z,101058.89
2019-04-21T12:26:46.348Z,101062.33
2019-04-21T12:29:16.679Z,101054.69
2019-04-21T12:31:59.610Z,101054.14
2019-04-21T12:34:30.222Z,101045.58
2019-04-21T12:37:00.855Z,101033.59
2019-04-21T12:39:30.643Z,101029.17
2019-04-21T12:42:00.824Z,101029.47
2019-04-21T12:44:31.831Z,101035.23
2019-04-21T12:47:01.726Z,101021.26
2019-04-21T12:49:31.789Z,101020.30
2019-04-21T12:52:02.013Z,101012.73
2019-04-21T12:54:33.126Z,101003.26
2019-04-21T12:57:03.459Z,101001.61
2019-04-21T12:59:34.524Z,100993.96
2019-04-21T13:02:04.371Z,100997.42
2019-04-21T13:04:33.728Z,100986.77
2019-04-21T13:07:03.691Z,100980.92
2019-04-21T13:09:34.270Z,100982.81
2019-04-21T13:12:04.893Z,100972.25
2019-04-21T13:14:34.292Z,100970.56
2019-04-21T13:17:05.670Z,100960.86
2019-04-21T13:19:35.748Z,100960.88
2019-04-21T13:22:05.845Z,100955.67
2019-04-21T13:24:35.849Z,100958.03
2019-04-21T13:27:07.452Z,100951.30
2019-04-21T13:29:37.015Z,100942.48
2019-04-21T13:32:08.409Z,100939.16
2019-04-21T13:34:37.936Z,100942.11
2019-04-21T13:37:07.715Z,100935.77
2019-04-21T13:40:23.640Z,100929.41
2019-04-21T13:42:40.713Z,100925.88
2019-04-21T13:45:10.082Z,100927.56
2019-04-21T13:47:40.773Z,100917.63
2019-04-21T13:50:11.208Z,100913.98
2019-04-21T13:52:40.882Z,100912.44
2019-04-21T13:55:11.812Z,100905.44
2019-04-21T13:57:41.299Z,100900.22
2019-04-21T14:00:13.069Z,100898.94
2019-04-21T14:02:42.754Z,100898.09
2019-04-21T14:05:15.766Z,100891.73
2019-04-21T14:07:46.203Z,100885.95
2019-04-21T14:10:17.912Z,100890.48
2019-04-21T14:12:48.943Z,100886.00
2019-04-21T14:15:20.470Z,100879.73
2019-04-21T14:17:50.917Z,100874.47
2019-04-21T14:20:21.570Z,100874.11
2019-04-21T14:22:51.918Z,100872.66
2019-04-21T14:25:21.748Z,100874.36
2019-04-21T14:27:52.554Z,100863.27
2019-04-21T14:30:26.309Z,100863.60
2019-04-21T14:32:56.190Z,100860.76
2019-04-21T14:35:27.140Z,100854.01
2019-04-21T14:37:56.628Z,100856.81
2019-04-21T14:40:29.506Z,100852.73
2019-04-21T14:42:58.349Z,100848.84
2019-04-21T14:45:30.459Z,100845.55
2019-04-21T14:48:19.041Z,100839.59
2019-04-21T14:51:06.587Z,100836.83
2019-04-21T14:53:38.130Z,100832.01
2019-04-21T14:56:08.818Z,100829.93
2019-04-21T14:58:39.246Z,100831.65
2019-04-21T15:01:10.403Z,100827.59
2019-04-21T15:03:41.727Z,100824.28
2019-04-21T15:06:11.659Z,100826.13
2019-04-21T15:08:41.216Z,100817.83
2019-04-21T15:11:11.725Z,100811.55
2019-04-21T15:13:41.762Z,100815.75
2019-04-21T15:16:11.218Z,100811.39
2019-04-21T15:18:41.002Z,100808.44
2019-04-21T15:21:11.126Z,100813.78
2019-04-21T15:23:40.700Z,100807.41
2019-04-21T15:26:10.388Z,100812.52
2019-04-21T15:28:42.297Z,100805.95
2019-04-21T15:31:12.697Z,100802.97
2019-04-21T15:33:43.171Z,100805.95
2019-04-21T15:36:13.412Z,100803.91
2019-04-21T15:38:43.791Z,100792.88
2019-04-21T15:41:14.382Z,100791.78
2019-04-21T15:43:44.738Z,100793.92
2019-04-21T15:46:15.086Z,100776.28
2019-04-21T15:48:44.893Z,100777.89
2019-04-21T15:51:15.718Z,100774.33
2019-04-21T15:53:47.876Z,100779.06
2019-04-21T15:56:20.581Z,100771.41
2019-04-21T15:59:01.087Z,100770.32
2019-04-21T16:01:32.495Z,100766.72
2019-04-21T16:04:02.880Z,100767.45
2019-04-21T16:06:37.400Z,100762.27
2019-04-21T16:09:16.153Z,100764.06
2019-04-21T16:11:40.222Z,100762.34
2019-04-21T16:14:10.176Z,100755.64
2019-04-21T16:16:41.038Z,100749.87
2019-04-21T16:19:12.328Z,100755.11
2019-04-21T16:21:44.391Z,100742.23
2019-04-21T16:24:14.151Z,100746.45
2019-04-21T16:26:44.579Z,100741.55
2019-04-21T16:29:15.267Z,100741.36
2019-04-21T16:31:44.918Z,100741.78
2019-04-21T16:34:15.701Z,100738.02
2019-04-21T16:36:45.705Z,100739.75
2019-04-21T16:39:15.588Z,100738.94
2019-04-21T16:41:46.517Z,100734.17
2019-04-21T16:44:16.887Z,100730.71
2019-04-21T16:46:47.511Z,100723.36
2019-04-21T16:49:17.896Z,100724.42
2019-04-21T16:51:49.994Z,100719.06
2019-04-21T16:54:21.999Z,100719.59
2019-04-21T16:56:54.094Z,100716.41
2019-04-21T16:59:26.328Z,100710.63
2019-04-21T17:01:56.542Z,100710.25
2019-04-21T17:04:26.491Z,100709.98
2019-04-21T17:06:55.994Z,100705.39
2019-04-21T17:09:26.559Z,100702.45
2019-04-21T17:11:59.854Z,100698.91
2019-04-21T17:14:43.679Z,100689.51
2019-04-21T17:17:20.501Z,100693.59
2019-04-21T17:19:32.870Z,100690.30
2019-04-21T17:22:01.594Z,100689.16
2019-04-21T17:24:32.562Z,100687.55
2019-04-21T17:27:02.877Z,100688.06
2019-04-21T17:29:32.587Z,100680.19
2019-04-21T17:32:04.789Z,100680.78
2019-04-21T17:34:35.516Z,100674.23
2019-04-21T17:37:05.541Z,100677.53
2019-04-21T17:39:36.623Z,100676.05
2019-04-21T17:42:18.345Z,100672.58
2019-04-21T17:44:39.207Z,100667.79
2019-04-21T17:47:21.428Z,100669.22
2019-04-21T17:49:41.105Z,100669.29
2019-04-21T17:52:22.147Z,100665.21
2019-04-21T17:55:12.268Z,100664.48
2019-04-21T17:57:54.545Z,100662.61
2019-04-21T18:00:42.789Z,100668.95
2019-04-21T18:02:59.000Z,100668.86
2019-04-21T18:05:32.977Z,100669.22
2019-04-21T18:07:54.829Z,100668.48
2019-04-21T18:10:33.821Z,100666.80
2019-04-21T18:12:55.359Z,100667.98
2019-04-21T18:15:35.998Z,100667.25
2019-04-21T18:17:50.233Z,100667.04
2019-04-21T18:20:25.843Z,100674.53
2019-04-21T18:22:58.570Z,100677.78
2019-04-21T18:25:44.852Z,100675.61
2019-04-21T18:28:04.820Z,100683.32
2019-04-21T18:30:44.552Z,100685.44
2019-04-21T18:33:22.872Z,100678.80
2019-04-21T18:36:00.660Z,100682.69
2019-04-21T18:39:04.136Z,100690.44
2019-04-21T18:41:30.218Z,100684.06
2019-04-21T18:44:53.733Z,100687.56
2019-04-21T18:47:16.551Z,100685.55
2019-04-21T18:49:29.139Z,100691.09
2019-04-21T18:52:18.148Z,100686.21
2019-04-21T18:54:57.580Z,100691.23
2019-04-21T18:57:19.555Z,100690.27
2019-04-21T18:59:45.128Z,100688.98
2019-04-21T19:02:17.783Z,100696.08
2019-04-21T19:04:44.167Z,100697.53
2019-04-21T19:07:25.233Z,100698.94
2019-04-21T19:10:20.492Z,100695.47
2019-04-21T19:14:58.105Z,100700.31
2019-04-21T19:22:38.611Z,100707.61
2019-04-21T19:25:13.158Z,100710.61
2019-04-21T19:27:38.321Z,100706.66
2019-04-21T19:32:39.058Z,100708.81
2019-04-21T19:34:59.500Z,100710.34
2019-04-21T19:37:28.872Z,100706.42
2019-04-21T19:40:08.733Z,100702.53
2019-04-21T19:42:38.332Z,100698.80
2019-04-21T19:45:20.637Z,100707.97
2019-04-21T19:47:50.354Z,100702.14
2019-04-21T19:50:26.481Z,100707.64
2019-04-21T19:52:43.770Z,100705.43
2019-04-21T19:55:09.754Z,100702.22
2019-04-21T19:57:39.201Z,100699.42
2019-04-21T20:00:11.249Z,100710.27
2019-04-21T20:02:40.838Z,100707.97
2019-04-21T20:05:16.503Z,100702.95
2019-04-21T20:08:02.942Z,100705.92
2019-04-21T20:10:35.242Z,100703.96
2019-04-21T20:13:02.847Z,100696.94
2019-04-21T20:15:42.130Z,100697.75
2019-04-21T20:18:01.870Z,100688.88
2019-04-21T20:20:19.362Z,100698.92
2019-04-21T20:22:51.975Z,100700.28
2019-04-21T20:25:23.261Z,100691.36
2019-04-21T20:28:01.343Z,100694.59
2019-04-21T20:30:42.309Z,100694.42
2019-04-21T20:33:36.969Z,100698.83
2019-04-21T20:35:52.089Z,100697.83
2019-04-21T20:38:12.341Z,100704.05
2019-04-21T20:40:40.273Z,100700.51
2019-04-21T20:43:16.454Z,100694.27
2019-04-21T20:45:54.120Z,100695.23
2019-04-21T20:48:13.869Z,100689.19
2019-04-21T20:50:49.925Z,100687.20
2019-04-21T20:53:25.113Z,100693.86
2019-04-21T20:55:48.985Z,100687.32
2019-04-21T20:58:25.405Z,100690.21
2019-04-21T21:01:09.365Z,100689.09
2019-04-21T21:03:24.273Z,100687.13
2019-04-21T21:05:51.528Z,100684.13
2019-04-21T21:08:31.416Z,100680.66
2019-04-21T21:10:58.746Z,100681.19
2019-04-21T21:13:33.715Z,100684.39
2019-04-21T21:16:10.271Z,100683.48
2019-04-21T21:18:56.454Z,100678.81
2019-04-21T21:21:09.498Z,100678.70
2019-04-21T21:23:37.093Z,100674.37
2019-04-21T21:26:10.683Z,100676.59
2019-04-21T21:28:32.672Z,100675.61
2019-04-21T21:31:11.747Z,100679.30
2019-04-21T21:33:54.297Z,100671.28
2019-04-21T21:36:13.989Z,100672.77
2019-04-21T21:38:42.885Z,100676.18
2019-04-21T21:41:07.621Z,100676.53
2019-04-21T21:43:29.432Z,100673.70
2019-04-21T21:46:02.638Z,100647.50
2019-04-21T21:48:40.823Z,100677.72
2019-04-21T21:51:05.860Z,100674.53
2019-04-21T21:53:34.147Z,100674.87
2019-04-21T21:56:02.825Z,100674.55
2019-04-21T21:58:37.162Z,100667.73
2019-04-21T22:01:08.194Z,100666.86
2019-04-21T22:03:40.841Z,100670.22
2019-04-21T22:06:10.814Z,100665.53
2019-04-21T22:08:38.631Z,100670.05
2019-04-21T22:11:08.911Z,100671.86
2019-04-21T22:13:47.615Z,100669.17
2019-04-21T22:16:13.979Z,100660.64
2019-04-21T22:19:03.219Z,100665.11
2019-04-21T22:21:34.235Z,100658.08
2019-04-21T22:23:54.937Z,100657.55
2019-04-21T22:26:15.494Z,100659.38
2019-04-21T22:28:45.691Z,100657.83
2019-04-21T22:31:19.630Z,100659.30
2019-04-21T22:33:50.306Z,100666.95
2019-04-21T22:36:29.930Z,100661.59
2019-04-21T22:39:09.015Z,100663.03
2019-04-21T22:41:28.887Z,100659.99
2019-04-21T22:43:52.348Z,100660.15
2019-04-21T22:46:22.354Z,100662.19
2019-04-21T22:48:56.534Z,100663.52
2019-04-21T22:51:30.528Z,100665.07
2019-04-21T22:53:57.617Z,100657.22
2019-04-21T22:56:30.083Z,100660.20
2019-04-21T22:58:57.114Z,100660.25
2019-04-21T23:01:33.393Z,100657.22
2019-04-21T23:04:01.352Z,100617.45
2019-04-21T23:06:32.693Z,100656.98
2019-04-21T23:09:01.160Z,100654.63
2019-04-21T23:11:35.881Z,100658.12
2019-04-21T23:14:06.527Z,100648.59
2019-04-21T23:16:36.263Z,100651.59
2019-04-21T23:19:21.212Z,100641.80
2019-04-21T23:21:55.382Z,100646.33
2019-04-21T23:24:33.110Z,100651.68
2019-04-21T23:26:51.691Z,100650.70
2019-04-21T23:29:39.503Z,100643.02
2019-04-21T23:32:00.796Z,100643.70
2019-04-21T23:34:19.719Z,100639.69
2019-04-21T23:36:53.108Z,100644.88
2019-04-21T23:39:21.577Z,100644.42
2019-04-21T23:41:48.862Z,100644.61
2019-04-21T23:44:19.034Z,100641.28
2019-04-21T23:46:51.088Z,100637.77
2019-04-21T23:49:29.661Z,100637.63
2019-04-21T23:51:58.376Z,100636.31
2019-04-21T23:54:19.803Z,100633.80
2019-04-21T23:56:49.529Z,100634.30
2019-04-21T23:59:20.592Z,100632.47
